Time;durP1;ratioP1;P1;durP2;ratioP2;P2;SDS_P1;SDS_P2;PMS_P1;PMS_P2;Temp;Humidity;BMP_temperature;BMP_pressure;BME280_temperature;BME280_humidity;BME280_pressure;Samples;Min_cycle;Max_cycle;Signal;HPM_P1;HPM_P2
2022/01/18 00:01:53;;;;;;;;;24.50;22.25;;;;;8.84;62.14;103452.59;5018654;28;45347;-78
2022/01/18 00:04:27;;;;;;;;;26.75;22.00;;;;;8.65;62.55;103421.16;5035695;28;46155;-79
2022/01/18 00:06:55;;;;;;;;;32.00;25.75;;;;;8.35;62.10;103356.72;5018552;28;47274;-79
2022/01/18 00:09:30;;;;;;;;;30.25;26.75;;;;;8.62;62.46;103421.09;5018550;28;45712;-79
2022/01/18 00:12:27;;;;;;;;;27.25;24.00;;;;;8.30;62.48;103360.13;5020044;28;45328;-79
2022/01/18 00:15:28;;;;;;;;;29.25;29.25;;;;;8.61;62.08;103422.88;5019481;28;45542;-79
2022/01/18 00:18:06;;;;;;;;;31.00;29.00;;;;;8.46;62.48;103377.34;5019253;28;45985;-78
2022/01/18 00:21:26;;;;;;;;;33.00;29.25;;;;;8.31;62.14;103359.28;5034616;28;45633;-79
2022/01/18 00:23:37;;;;;;;;;21.75;20.75;;;;;8.50;62.18;103396.06;5022041;28;45194;-78
2022/01/18 00:26:11;;;;;;;;;29.50;26.50;;;;;8.39;62.16;103378.94;5017232;28;45261;-78
2022/01/18 00:28:38;;;;;;;;;30.75;27.75;;;;;8.29;61.94;103345.06;5007334;28;46362;-78
2022/01/18 00:33:58;;;;;;;;;36.75;33.00;;;;;8.30;62.08;103362.78;5019930;28;45252;-78
2022/01/18 00:38:55;;;;;;;;;30.50;25.50;;;;;8.59;62.10;103405.97;5019419;28;46131;-78
2022/01/18 00:41:25;;;;;;;;;30.50;27.25;;;;;8.39;61.98;103384.28;5034369;28;45245;-79
2022/01/18 00:44:21;;;;;;;;;;;;;;;;;;;;;
2022/01/18 00:46:47;;;;;;;;;28.50;26.50;;;;;8.55;62.16;103397.91;5015090;28;72331;-78
2022/01/18 00:49:18;;;;;;;;;26.00;24.75;;;;;8.31;62.59;103369.91;5017900;28;47168;-78
2022/01/18 00:51:53;;;;;;;;;33.00;29.75;;;;;8.18;62.39;103346.59;5018605;28;47097;-79
2022/01/18 00:54:25;;;;;;;;;28.50;25.00;;;;;8.42;62.62;103388.75;5018114;28;45522;-79
2022/01/18 00:56:52;;;;;;;;;36.25;29.00;;;;;8.22;62.50;103378.63;5014938;28;45494;-79
2022/01/18 00:59:20;;;;;;;;;38.75;30.25;;;;;8.29;62.47;103377.00;5006037;28;46540;-79
2022/01/18 01:01:49;;;;;;;;;37.25;30.00;;;;;8.26;62.85;103366.28;5018927;28;45386;-78
2022/01/18 01:04:24;;;;;;;;;;;;;;;;;;;;;
2022/01/18 01:06:52;;;;;;;;;32.25;30.00;;;;;8.40;62.24;103399.34;5018410;28;72823;-78
2022/01/18 01:09:20;;;;;;;;;32.50;29.25;;;;;8.20;62.69;103360.81;5017986;28;46166;-78
2022/01/18 01:11:48;;;;;;;;;29.25;27.50;;;;;8.05;62.65;103340.13;5018684;28;45723;-79
2022/01/18 01:14:21;;;;;;;;;28.50;21.50;;;;;8.31;62.68;103399.19;5019638;28;45443;-78
2022/01/18 01:16:56;;;;;;;;;27.50;25.75;;;;;8.27;62.51;103390.25;5018784;28;45403;-79
2022/01/18 01:35:47;;;;;;;;;29.00;23.75;;;;;8.00;62.95;103373.72;5022729;28;45485;-79
2022/01/18 01:44:05;;;;;;;;;28.00;25.75;;;;;7.58;63.05;103347.19;5022549;28;45903;-79
2022/01/18 01:46:34;;;;;;;;;31.50;25.25;;;;;7.70;63.53;103377.53;5025747;28;45463;-78
2022/01/18 01:49:05;;;;;;;;;25.00;23.00;;;;;7.80;63.50;103392.81;5020606;28;45402;-78
2022/01/18 01:51:31;;;;;;;;;37.00;32.50;;;;;7.98;63.64;103432.22;5037515;28;48168;-78
2022/01/18 01:54:06;;;;;;;;;29.75;26.50;;;;;7.90;63.26;103432.06;5027390;28;45775;-79
2022/01/18 01:56:34;;;;;;;;;27.25;26.75;;;;;7.37;64.12;103360.00;5020750;28;45323;-79
2022/01/18 01:59:07;;;;;;;;;27.75;26.50;;;;;7.32;64.04;103359.00;5020253;28;45382;-79
2022/01/18 02:01:47;;;;;;;;;26.50;21.00;;;;;7.19;64.33;103357.78;5037118;28;47010;-78
2022/01/18 02:04:15;;;;;;;;;27.75;24.25;;;;;7.37;64.02;103407.81;5021512;28;45358;-78
2022/01/18 02:06:41;;;;;;;;;30.75;25.00;;;;;7.36;63.92;103424.63;5020941;28;45405;-78
2022/01/18 02:09:12;;;;;;;;;27.00;24.75;;;;;7.01;64.24;103366.22;5020330;28;45390;-78
2022/01/18 02:11:37;;;;;;;;;23.50;20.25;;;;;7.04;64.05;103374.25;5020382;28;46940;-78
2022/01/18 02:14:08;;;;;;;;;26.00;23.00;;;;;7.08;64.09;103407.09;5004101;28;45397;-79
2022/01/18 02:22:05;;;;;;;;;29.50;24.75;;;;;6.74;64.60;103371.75;5020325;28;45808;-79
2022/01/18 02:24:31;;;;;;;;;29.25;27.75;;;;;6.65;64.36;103367.09;5019448;28;45356;-79
2022/01/18 02:26:56;;;;;;;;;34.50;30.00;;;;;6.48;64.84;103367.53;5023793;28;45214;-79
2022/01/18 02:29:22;;;;;;;;;28.75;23.00;;;;;6.48;65.18;103362.25;5021523;28;45212;-79
2022/01/18 02:31:51;;;;;;;;;26.25;23.00;;;;;6.78;65.55;103416.06;5008046;28;46366;-80
2022/01/18 02:34:22;;;;;;;;;31.25;29.00;;;;;6.77;65.10;103425.81;5036813;28;45357;-79
2022/01/18 02:36:50;;;;;;;;;33.00;28.75;;;;;6.61;65.61;103389.97;5021943;28;45323;-79
2022/01/18 02:39:25;;;;;;;;;29.75;26.75;;;;;6.52;65.32;103363.22;5021188;28;45426;-79
2022/01/18 02:41:56;;;;;;;;;30.75;24.75;;;;;6.71;65.51;103392.91;5021365;28;46508;-79
2022/01/18 02:44:26;;;;;;;;;33.50;30.50;;;;;6.74;65.19;103411.56;5036505;28;45776;-79
2022/01/18 02:46:52;;;;;;;;;27.25;22.00;;;;;6.66;65.54;103392.75;5021434;28;45414;-79
2022/01/18 02:49:20;;;;;;;;;31.00;26.75;;;;;6.40;64.98;103346.94;5020900;28;45682;-79
2022/01/18 02:51:46;;;;;;;;;25.25;23.25;;;;;6.29;65.58;103357.28;5019472;28;47222;-79
2022/01/18 02:54:15;;;;;;;;;30.50;23.75;;;;;6.49;65.63;103379.06;5019282;28;45427;-80
2022/01/18 02:56:48;;;;;;;;;20.25;19.75;;;;;6.27;66.00;103356.34;5019784;28;45595;-80
2022/01/18 02:59:25;;;;;;;;;27.00;22.50;;;;;6.32;65.60;103380.38;5020972;28;45443;-79
2022/01/18 03:04:49;;;;;;;;;24.00;22.00;;;;;6.13;65.75;103310.88;5019879;28;45324;-79
2022/01/18 03:07:15;;;;;;;;;24.75;21.00;;;;;6.27;65.51;103343.97;5021102;28;45284;-79
2022/01/18 03:09:41;;;;;;;;;26.75;25.50;;;;;6.09;66.02;103311.66;5019549;28;45494;-79
2022/01/18 03:12:08;;;;;;;;;26.25;23.50;;;;;6.21;65.89;103298.72;5019671;28;47292;-79
2022/01/18 03:14:36;;;;;;;;;23.50;22.50;;;;;6.29;66.12;103310.44;5020888;28;45482;-79
2022/01/18 03:17:05;;;;;;;;;30.75;25.25;;;;;6.34;65.58;103304.34;5019418;28;45436;-79
2022/01/18 03:19:30;;;;;;;;;23.00;21.00;;;;;6.44;66.14;103298.44;5017590;28;45486;-78
2022/01/18 03:21:57;;;;;;;;;27.25;22.50;;;;;6.43;65.95;103296.63;5012111;28;45303;-79
2022/01/18 03:29:37;;;;;;;;;28.25;26.50;;;;;6.69;65.93;103318.53;5008408;28;45313;-79
2022/01/18 03:32:03;;;;;;;;;24.00;21.00;;;;;6.67;65.70;103317.59;5020267;28;46566;-78
2022/01/18 03:34:29;;;;;;;;;27.75;26.50;;;;;6.80;65.57;103324.09;5020851;28;45288;-79
2022/01/18 03:36:55;;;;;;;;;25.00;21.25;;;;;6.72;65.39;103312.41;5020467;28;45332;-78
2022/01/18 03:39:23;;;;;;;;;26.50;22.00;;;;;6.71;65.41;103318.56;5019290;28;45427;-79
2022/01/18 03:41:54;;;;;;;;;24.50;22.50;;;;;7.03;65.37;103361.84;5019934;28;46292;-79
2022/01/18 03:44:26;;;;;;;;;30.00;27.00;;;;;6.90;65.58;103338.50;5035845;28;45637;-79
2022/01/18 03:46:54;;;;;;;;;24.00;23.00;;;;;6.90;65.42;103352.69;5019895;28;45410;-78
2022/01/18 03:49:27;;;;;;;;;25.50;21.75;;;;;6.97;65.16;103348.44;5029759;28;45527;-78
2022/01/18 03:51:54;;;;;;;;;33.50;28.50;;;;;6.72;65.42;103300.03;5018619;28;47182;-79
2022/01/18 03:54:23;;;;;;;;;30.75;26.00;;;;;6.62;65.57;103293.59;5007887;28;45632;-78
2022/01/18 03:56:51;;;;;;;;;25.50;23.75;;;;;6.95;65.55;103335.09;5017447;28;45445;-78
2022/01/18 03:59:16;;;;;;;;;23.25;22.00;;;;;7.19;65.57;103365.75;5035642;28;45540;-78
2022/01/18 04:01:44;;;;;;;;;23.50;20.75;;;;;6.90;65.43;103325.22;5035285;28;48338;-78
2022/01/18 04:04:12;;;;;;;;;30.25;24.00;;;;;6.81;65.21;103315.28;5020264;28;45334;-79
2022/01/18 04:06:37;;;;;;;;;28.00;27.50;;;;;6.94;65.14;103317.38;5035385;28;45280;-79
2022/01/18 04:09:04;;;;;;;;;25.50;24.00;;;;;6.89;65.01;103316.34;5020316;28;45217;-78
2022/01/18 04:11:29;;;;;;;;;24.25;20.75;;;;;7.24;65.10;103388.03;5019919;28;46694;-79
2022/01/18 04:13:57;;;;;;;;;26.50;24.50;;;;;7.24;65.38;103375.63;5035380;28;45300;-78
2022/01/18 04:16:25;;;;;;;;;24.25;20.00;;;;;7.00;65.30;103330.81;5034936;28;45430;-78
2022/01/18 04:19:20;;;;;;;;;25.25;23.25;;;;;7.12;65.33;103356.75;5018938;28;45348;-78
2022/01/18 04:27:12;;;;;;;;;28.00;24.25;;;;;6.93;65.32;103317.31;5013738;28;45371;-78
2022/01/18 04:29:37;;;;;;;;;23.00;22.25;;;;;6.76;65.07;103271.78;5035267;28;45890;-79
2022/01/18 04:32:03;;;;;;;;;30.00;22.75;;;;;6.81;64.97;103272.78;5034818;28;45422;-78
2022/01/18 04:34:28;;;;;;;;;28.75;23.75;;;;;7.01;64.57;103316.63;5018634;28;45276;-78
2022/01/18 04:36:54;;;;;;;;;28.25;24.75;;;;;6.93;64.73;103294.31;5019735;28;45241;-78
2022/01/18 04:39:19;;;;;;;;;29.00;24.50;;;;;7.03;65.11;103316.69;5018361;28;45408;-78
2022/01/18 04:41:47;;;;;;;;;27.00;26.25;;;;;6.99;65.29;103312.16;5017747;28;46864;-78
2022/01/18 04:49:45;;;;;;;;;27.25;26.50;;;;;6.80;65.12;103263.94;5018933;28;45228;-78
2022/01/18 04:52:13;;;;;;;;;28.25;23.75;;;;;7.37;65.03;103352.91;5019207;28;47468;-78
2022/01/18 04:54:46;;;;;;;;;27.75;23.50;;;;;6.92;65.11;103270.41;5018284;28;46228;-78
2022/01/18 04:59:42;;;;;;;;;27.75;22.75;;;;;6.98;64.94;103282.06;5019435;28;45499;-78
2022/01/18 05:02:08;;;;;;;;;21.50;20.00;;;;;7.06;64.82;103292.84;5020875;28;46000;-78
2022/01/18 05:04:39;;;;;;;;;25.75;23.00;;;;;6.93;64.85;103278.38;5023126;28;45612;-78
2022/01/18 05:07:08;;;;;;;;;26.25;24.00;;;;;7.23;65.63;103325.13;5022660;28;45475;-78
2022/01/18 05:09:43;;;;;;;;;29.50;23.75;;;;;6.94;65.35;103282.84;5038087;28;45551;-79
2022/01/18 05:12:18;;;;;;;;;23.50;22.50;;;;;6.99;65.28;103291.81;5020838;28;47307;-79
2022/01/18 05:14:45;;;;;;;;;26.00;23.75;;;;;6.97;65.03;103298.84;5021402;28;45744;-79
2022/01/18 05:17:34;;;;;;;;;29.00;24.75;;;;;6.91;64.85;103287.19;5037885;28;45502;-79
2022/01/18 05:20:35;;;;;;;;;31.50;24.25;;;;;6.86;64.81;103282.66;5022433;28;45491;-78
2022/01/18 05:22:58;;;;;;;;;28.25;23.25;;;;;6.99;65.40;103293.59;5019942;28;45262;-78
2022/01/18 05:25:34;;;;;;;;;32.50;27.00;;;;;6.95;65.59;103305.91;5037879;28;45454;-78
2022/01/18 05:28:03;;;;;;;;;21.25;18.75;;;;;7.02;65.65;103309.59;5020978;28;45454;-79
2022/01/18 05:30:31;;;;;;;;;29.00;24.25;;;;;7.16;65.20;103329.38;5022445;28;45508;-78
2022/01/18 05:33:06;;;;;;;;;27.50;21.75;;;;;7.14;65.32;103325.81;5021016;28;47986;-78
2022/01/18 05:35:32;;;;;;;;;31.00;23.50;;;;;7.19;65.57;103344.50;5022730;28;45413;-78
2022/01/18 05:37:58;;;;;;;;;25.50;23.00;;;;;6.89;65.29;103283.59;5020907;28;45272;-79
2022/01/18 05:40:27;;;;;;;;;30.50;23.00;;;;;6.83;65.30;103271.06;5022444;28;45339;-78
2022/01/18 05:42:52;;;;;;;;;28.75;26.50;;;;;6.79;65.26;103269.22;5021339;28;46377;-78
2022/01/18 05:45:21;;;;;;;;;29.75;25.50;;;;;6.95;65.47;103294.34;5020048;28;45422;-78
2022/01/18 05:47:46;;;;;;;;;30.50;25.75;;;;;7.03;65.67;103301.66;5021221;28;45217;-78
2022/01/18 05:50:15;;;;;;;;;29.50;27.00;;;;;7.03;65.43;103300.75;5021066;28;45292;-78
2022/01/18 05:52:44;;;;;;;;;27.00;25.00;;;;;6.87;65.87;103267.63;5019797;28;46280;-78
2022/01/18 05:55:10;;;;;;;;;23.50;20.75;;;;;6.98;65.30;103281.16;5020989;28;45233;-78
2022/01/18 05:57:35;;;;;;;;;25.00;24.75;;;;;7.10;65.24;103312.41;5021233;28;45416;-78
2022/01/18 06:00:05;;;;;;;;;37.00;27.00;;;;;6.83;65.46;103265.75;5036014;28;45751;-78
2022/01/18 06:02:43;;;;;;;;;28.50;27.00;;;;;7.28;65.72;103338.50;5019587;28;47400;-78
2022/01/18 06:07:59;;;;;;;;;28.25;25.00;;;;;7.16;65.30;103308.13;5021105;28;45236;-78
2022/01/18 06:10:28;;;;;;;;;29.00;25.25;;;;;6.92;65.76;103273.94;5036135;28;45897;-78
2022/01/18 06:12:53;;;;;;;;;29.25;22.75;;;;;6.88;65.47;103263.22;5018580;28;47308;-78
2022/01/18 06:15:21;;;;;;;;;33.25;23.25;;;;;7.34;65.49;103355.50;5020477;28;45319;-78
2022/01/18 06:17:49;;;;;;;;;23.75;22.00;;;;;6.88;64.95;103266.75;5020233;28;45555;-79
2022/01/18 06:20:15;;;;;;;;;27.25;26.00;;;;;6.76;65.55;103256.75;5019205;28;45436;-79
2022/01/18 06:22:40;;;;;;;;;22.50;20.25;;;;;7.16;65.18;103331.16;5019431;28;46919;-78
2022/01/18 06:25:07;;;;;;;;;23.25;22.25;;;;;6.90;65.49;103283.66;5017974;28;45462;-78
2022/01/18 06:27:35;;;;;;;;;24.75;21.50;;;;;7.16;65.05;103329.38;5020491;28;45501;-78
2022/01/18 06:30:01;;;;;;;;;26.75;19.50;;;;;6.93;65.56;103293.44;5018953;28;45429;-78
2022/01/18 06:32:31;;;;;;;;;23.25;18.50;;;;;6.87;65.34;103283.56;5019338;28;47401;-78
2022/01/18 06:34:59;;;;;;;;;21.25;17.75;;;;;6.83;65.49;103271.06;5020440;28;45545;-78
2022/01/18 06:37:25;;;;;;;;;21.00;18.50;;;;;7.37;65.58;103358.22;5020434;28;45349;-78
2022/01/18 06:39:53;;;;;;;;;21.50;19.00;;;;;7.36;65.27;103369.69;5020220;28;45438;-78
2022/01/18 06:42:24;;;;;;;;;23.00;18.50;;;;;7.08;65.04;103317.69;5018048;28;47878;-78
2022/01/18 06:45:15;;;;;;;;;18.50;13.25;;;;;6.91;64.96;103281.88;4975375;28;1241694;-78
2022/01/18 06:47:41;;;;;;;;;23.25;20.50;;;;;7.24;65.20;103337.53;5021365;28;45493;-79
2022/01/18 06:50:12;;;;;;;;;17.25;14.25;;;;;6.91;65.31;103277.47;5021191;28;45416;-79
2022/01/18 06:52:53;;;;;;;;;;;;;;;;;;;;;
2022/01/18 06:55:21;;;;;;;;;18.75;15.50;;;;;7.11;64.84;103309.78;5019805;28;72974;-78
2022/01/18 06:57:47;;;;;;;;;16.50;14.50;;;;;7.08;64.59;103307.06;5021556;28;45264;-78
2022/01/18 07:00:15;;;;;;;;;22.00;18.00;;;;;7.10;64.95;103312.41;5020851;28;45401;-78
2022/01/18 07:02:48;;;;;;;;;20.25;15.00;;;;;6.90;65.26;103285.38;5019820;28;47459;-78
2022/01/18 07:05:14;;;;;;;;;27.25;19.00;;;;;7.04;65.00;103294.59;5020832;28;45800;-78
2022/01/18 07:07:41;;;;;;;;;22.50;18.50;;;;;6.96;64.87;103289.06;5021433;28;45443;-78
2022/01/18 07:10:10;;;;;;;;;21.25;16.75;;;;;6.95;64.79;103284.66;5035911;28;45613;-78
2022/01/18 07:12:46;;;;;;;;;;;;;;;;;;;;;
2022/01/18 07:15:14;;;;;;;;;21.50;18.50;;;;;7.42;64.91;103369.84;5018278;28;73881;-78
2022/01/18 07:17:40;;;;;;;;;26.50;21.50;;;;;7.17;64.84;103322.34;5016541;28;45498;-78
2022/01/18 07:20:11;;;;;;;;;24.25;20.75;;;;;7.13;65.03;103305.41;5019829;28;45436;-78
2022/01/18 07:22:44;;;;;;;;;19.50;17.75;;;;;7.16;64.82;103305.47;5019448;28;47324;-78
2022/01/18 07:25:15;;;;;;;;;20.50;17.00;;;;;7.19;64.77;103329.47;5017473;28;45656;-78
2022/01/18 07:27:40;;;;;;;;;20.50;19.00;;;;;6.99;64.71;103286.50;5019388;28;45434;-79
2022/01/18 07:30:09;;;;;;;;;17.75;16.00;;;;;7.23;64.92;103327.78;5020395;28;45415;-79
2022/01/18 07:32:37;;;;;;;;;18.75;16.75;;;;;6.92;64.98;103271.28;5017481;28;45498;-78
2022/01/18 07:35:07;;;;;;;;;23.00;20.00;;;;;6.91;64.54;103264.19;5009705;28;46730;-80
2022/01/18 07:37:33;;;;;;;;;22.00;22.00;;;;;6.90;64.46;103261.50;5019921;28;45436;-79
2022/01/18 07:46:18;;;;;;;;;17.50;17.00;;;;;6.96;65.01;103280.22;5121016;22;46686;-75
2022/01/18 07:48:35;;;;;;;;;33.00;24.25;;;;;7.05;65.12;103289.31;4980563;28;45328;-76
2022/01/18 07:51:05;;;;;;;;;24.25;21.50;;;;;6.88;64.96;103263.22;4979920;28;45400;-76
2022/01/18 07:53:38;;;;;;;;;31.75;25.25;;;;;6.93;65.14;103266.88;4978734;28;45742;-76
2022/01/18 07:56:16;;;;;;;;;;;;;;;;;;;;;
2022/01/18 07:58:45;;;;;;;;;23.50;22.75;;;;;7.08;65.07;103295.53;4979985;28;69352;-76
2022/01/18 08:01:15;;;;;;;;;26.00;21.25;;;;;6.95;64.99;103275.75;4978031;28;45779;-77
2022/01/18 08:03:41;;;;;;;;;31.00;25.00;;;;;7.10;65.15;103296.47;4977958;28;47211;-77
2022/01/18 08:06:14;;;;;;;;;32.75;28.00;;;;;7.40;65.19;103352.06;4980582;28;45326;-77
2022/01/18 08:08:42;;;;;;;;;27.25;20.50;;;;;7.12;65.12;103300.09;4986423;28;45235;-76
2022/01/18 08:11:12;;;;;;;;;27.50;23.50;;;;;7.21;65.20;103301.16;4975325;28;45444;-77
2022/01/18 08:13:48;;;;;;;;;28.25;23.00;;;;;7.10;65.14;103289.41;4966842;28;47615;-77
2022/01/18 08:16:44;;;;;;;;;;;;;;;;;;;;;
2022/01/18 08:19:09;;;;;;;;;30.75;23.75;;;;;7.25;65.23;103299.50;4980002;28;45426;-77
2022/01/18 08:21:35;;;;;;;;;20.00;16.00;;;;;6.83;65.53;103232.16;4977414;28;45364;-76
2022/01/18 08:24:03;;;;;;;;;32.00;27.25;;;;;6.95;65.24;103243.91;4978248;28;47178;-80
2022/01/18 08:26:28;;;;;;;;;24.00;21.25;;;;;7.00;65.65;103247.56;4980801;28;45610;-76
2022/01/18 08:28:54;;;;;;;;;21.25;18.00;;;;;7.06;65.49;103247.69;4978821;28;45873;-77
2022/01/18 08:31:19;;;;;;;;;30.00;24.25;;;;;7.27;65.40;103275.59;4978471;28;45326;-73
2022/01/18 08:33:45;;;;;;;;;30.25;26.00;;;;;7.48;65.28;103317.69;4972506;28;46115;-80
2022/01/18 08:36:12;;;;;;;;;26.75;23.75;;;;;7.58;65.53;103331.22;4975962;28;45491;-80
2022/01/18 08:38:39;;;;;;;;;26.00;24.50;;;;;7.22;65.16;103268.44;4970304;28;45472;-80
2022/01/18 08:41:05;;;;;;;;;23.75;20.25;;;;;7.30;65.18;103273.94;4977060;28;45575;-80
2022/01/18 08:43:31;;;;;;;;;25.25;21.75;;;;;7.22;65.27;103246.28;4975776;28;46926;-80
2022/01/18 08:46:03;;;;;;;;;24.00;23.50;;;;;7.52;65.40;103298.31;4963118;28;45423;-80
2022/01/18 08:48:28;;;;;;;;;28.50;23.50;;;;;7.35;65.69;103266.03;4973759;28;45519;-80
2022/01/18 08:50:54;;;;;;;;;31.75;26.00;;;;;7.31;65.44;103257.09;4990728;28;45969;-78
2022/01/18 08:53:20;;;;;;;;;23.75;20.25;;;;;7.30;65.83;103255.34;4974573;28;46318;-78
2022/01/18 08:55:45;;;;;;;;;19.25;15.25;;;;;7.38;65.66;103256.38;4975899;28;45274;-78
2022/01/18 08:58:11;;;;;;;;;24.50;19.25;;;;;7.47;65.56;103281.34;4967698;28;45393;-78
2022/01/18 09:00:37;;;;;;;;;18.75;17.00;;;;;7.52;65.75;103280.59;4974092;28;45905;-79
2022/01/18 09:03:06;;;;;;;;;24.50;23.25;;;;;7.41;65.69;103261.75;4977028;28;46361;-78
2022/01/18 09:05:32;;;;;;;;;22.25;20.25;;;;;7.37;65.78;103243.06;4974599;28;45756;-79
2022/01/18 09:08:01;;;;;;;;;20.25;18.75;;;;;7.52;66.30;103274.38;4970389;28;46743;-79
2022/01/18 09:10:27;;;;;;;;;22.75;21.50;;;;;7.44;65.74;103252.06;4976697;28;46477;-79
2022/01/18 09:12:55;;;;;;;;;17.75;16.00;;;;;7.59;65.83;103276.31;4974531;28;45505;-78
2022/01/18 09:15:20;;;;;;;;;27.00;24.25;;;;;7.77;65.94;103305.91;4971784;28;46046;-78
2022/01/18 09:17:46;;;;;;;;;19.50;16.75;;;;;7.63;66.10;103280.78;4976383;28;45789;-78
2022/01/18 09:20:13;;;;;;;;;30.25;24.00;;;;;7.66;66.16;103299.47;4972289;28;45944;-79
2022/01/18 09:22:42;;;;;;;;;25.75;23.75;;;;;7.54;66.43;103280.63;4972463;28;45407;-79
2022/01/18 09:25:15;;;;;;;;;24.50;23.25;;;;;7.60;66.34;103291.38;4973477;28;45376;-79
2022/01/18 09:27:42;;;;;;;;;24.75;23.50;;;;;7.71;66.53;103307.56;4970399;28;45431;-78
2022/01/18 09:30:09;;;;;;;;;32.25;24.00;;;;;7.56;66.62;103277.13;4948407;28;45952;-79
2022/01/18 09:32:34;;;;;;;;;35.50;28.50;;;;;7.47;66.56;103249.44;4974258;28;45418;-79
2022/01/18 09:35:00;;;;;;;;;28.25;27.75;;;;;7.69;66.99;103290.69;4973208;28;45495;-79
2022/01/18 09:37:25;;;;;;;;;23.75;21.75;;;;;7.74;66.72;103291.66;4976756;28;45433;-79
2022/01/18 09:39:53;;;;;;;;;29.00;27.00;;;;;7.59;67.06;103274.53;4977557;28;45607;-78
2022/01/18 09:42:20;;;;;;;;;30.50;29.50;;;;;7.63;66.75;103277.25;4975446;28;45685;-78
2022/01/18 09:44:46;;;;;;;;;36.50;30.25;;;;;7.69;67.17;103294.22;4974254;28;45534;-78
2022/01/18 09:47:12;;;;;;;;;38.25;30.25;;;;;7.71;67.10;103289.81;4967447;28;45442;-79
2022/01/18 09:49:38;;;;;;;;;25.75;21.50;;;;;7.75;66.88;103286.38;4972607;28;45497;-79
2022/01/18 09:52:04;;;;;;;;;36.50;29.25;;;;;7.90;67.03;103315.06;4967670;28;46475;-79
2022/01/18 09:54:30;;;;;;;;;26.50;25.75;;;;;7.89;66.99;103312.34;4977414;28;45683;-79
2022/01/18 09:56:56;;;;;;;;;27.00;22.00;;;;;7.93;67.45;103332.81;4977202;28;45568;-78
2022/01/18 09:59:21;;;;;;;;;16.50;12.50;;;;;7.58;67.36;103267.44;4973881;28;45534;-78
2022/01/18 10:01:47;;;;;;;;;32.75;28.00;;;;;7.64;67.47;103271.09;4965328;28;46060;-79
2022/01/18 10:04:25;;;;;;;;;31.00;25.50;;;;;7.61;67.36;103255.94;4981451;28;45346;-79
2022/01/18 10:06:58;;;;;;;;;30.75;26.75;;;;;7.60;67.20;103252.41;4977234;28;45341;-79
2022/01/18 10:09:25;;;;;;;;;29.50;27.50;;;;;7.82;67.65;103271.44;4972767;28;45546;-78
2022/01/18 10:12:08;;;;;;;;;35.50;25.25;;;;;8.16;67.46;103311.97;4979642;28;47303;-78
2022/01/18 10:14:35;;;;;;;;;27.00;23.50;;;;;8.01;67.19;103285.09;4979920;28;45828;-79
2022/01/18 10:17:02;;;;;;;;;28.50;21.75;;;;;8.00;67.24;103278.84;4971315;28;45462;-78
2022/01/18 10:19:47;;;;;;;;;32.75;29.75;;;;;7.82;67.46;103247.50;4977858;28;45319;-78
2022/01/18 10:22:15;;;;;;;;;30.00;29.00;;;;;7.97;66.91;103260.22;4976778;28;47332;-78
2022/01/18 10:24:42;;;;;;;;;21.50;18.25;;;;;7.92;67.25;103248.59;4981279;28;45421;-78
2022/01/18 10:27:13;;;;;;;;;31.50;26.25;;;;;7.94;67.43;103241.53;4978673;28;45468;-78
2022/01/18 10:29:43;;;;;;;;;34.25;26.00;;;;;8.05;67.51;103252.34;4975832;28;45441;-78
2022/01/18 10:32:23;;;;;;;;;31.25;26.25;;;;;8.21;67.27;103265.06;4971147;28;45490;-78
2022/01/18 10:37:25;;;;;;;;;24.00;23.00;;;;;8.52;67.41;103290.50;4978944;28;45507;-76
2022/01/18 10:39:55;;;;;;;;;31.25;28.50;;;;;8.40;67.39;103249.41;4972285;28;45395;-74
2022/01/18 10:42:39;;;;;;;;;23.50;22.75;;;;;8.31;67.22;103219.13;4978033;28;46197;-75
2022/01/18 10:45:14;;;;;;;;;26.00;22.25;;;;;8.71;67.05;103277.47;4975805;28;45432;-74
2022/01/18 10:47:52;;;;;;;;;28.50;24.00;;;;;8.47;66.43;103224.72;4976098;28;45488;-78
2022/01/18 10:50:19;;;;;;;;;26.00;22.50;;;;;8.48;67.00;103214.09;4971716;28;45492;-78
2022/01/18 10:52:45;;;;;;;;;26.50;22.50;;;;;8.40;66.76;103188.19;4978723;28;48073;-78
2022/01/18 10:55:24;;;;;;;;;23.00;22.50;;;;;8.60;66.73;103202.75;4978449;28;45385;-79
2022/01/18 10:57:51;;;;;;;;;30.75;26.50;;;;;8.51;66.33;103179.53;4971127;28;45511;-78
2022/01/18 11:00:24;;;;;;;;;25.00;23.75;;;;;8.99;66.54;103233.50;4970936;28;45524;-79
2022/01/18 11:02:53;;;;;;;;;17.25;17.25;;;;;8.91;65.59;103213.84;4979305;28;46744;-79
2022/01/18 11:05:27;;;;;;;;;19.00;15.25;;;;;8.88;65.84;103205.81;4977456;28;45220;-78
2022/01/18 11:07:55;;;;;;;;;20.50;18.25;;;;;9.01;65.40;103220.22;4968543;28;45254;-77
2022/01/18 11:10:27;;;;;;;;;19.25;17.25;;;;;8.78;65.28;103169.28;4978103;28;45535;-79
2022/01/18 11:13:04;;;;;;;;;21.50;19.50;;;;;8.96;65.61;103189.97;4970598;28;46295;-79
2022/01/18 11:15:32;;;;;;;;;20.50;20.50;;;;;8.96;65.69;103181.97;4977196;28;45746;-79
2022/01/18 11:18:02;;;;;;;;;21.50;20.25;;;;;8.80;65.30;103144.44;4972207;28;45436;-79
2022/01/18 11:20:32;;;;;;;;;20.25;16.25;;;;;9.02;64.99;103168.69;4982800;28;45630;-79
2022/01/18 11:22:58;;;;;;;;;17.50;15.25;;;;;9.29;64.91;103205.50;4978704;28;47308;-79
2022/01/18 11:25:24;;;;;;;;;21.50;20.25;;;;;8.99;64.84;103139.38;4969376;28;45497;-78
2022/01/18 11:27:52;;;;;;;;;18.75;15.25;;;;;9.23;64.69;103179.63;4967357;28;45442;-78
2022/01/18 11:30:21;;;;;;;;;22.25;14.75;;;;;9.19;64.37;103169.81;4977732;28;45471;-78
2022/01/18 11:32:53;;;;;;;;;17.75;13.75;;;;;9.42;64.09;103185.19;4975560;28;46919;-78
2022/01/18 11:35:25;;;;;;;;;23.50;16.00;;;;;9.43;64.35;103179.88;4980217;28;45287;-78
2022/01/18 11:38:09;;;;;;;;;16.00;14.00;;;;;9.50;64.03;103175.50;4969551;28;45603;-80
2022/01/18 11:40:50;;;;;;;;;16.25;13.50;;;;;9.37;63.37;103139.84;4976227;28;47142;-80
2022/01/18 11:43:36;;;;;;;;;15.75;13.50;;;;;9.59;63.52;103156.94;4978376;28;47124;-79
2022/01/18 11:46:19;;;;;;;;;15.00;12.25;;;;;9.27;63.62;103105.94;4976968;28;45775;-80
2022/01/18 11:48:45;;;;;;;;;18.00;16.00;;;;;9.21;63.89;103076.56;4966727;28;45396;-81
2022/01/18 11:51:17;;;;;;;;;18.75;16.50;;;;;9.56;63.63;103129.38;4975809;28;46888;-78
2022/01/18 11:53:54;;;;;;;;;21.50;17.75;;;;;9.61;63.24;103119.63;4978863;28;47350;-81
2022/01/18 11:56:34;;;;;;;;;17.50;15.00;;;;;9.38;62.80;103076.75;4978793;28;46169;-81
2022/01/18 11:59:18;;;;;;;;;12.25;10.50;;;;;9.82;62.26;103143.84;4979115;28;45268;-81
2022/01/18 12:01:57;;;;;;;;;10.75;10.75;;;;;9.39;62.61;103063.44;4980429;28;45536;-81
2022/01/18 12:04:49;;;;;;;;;10.00;9.50;;;;;9.87;62.20;103130.53;4979430;28;48224;-81
2022/01/18 12:07:33;;;;;;;;;6.75;5.00;;;;;9.93;62.55;103135.91;4969861;28;45528;-81
2022/01/18 12:10:00;;;;;;;;;13.00;11.25;;;;;9.95;61.69;103128.81;4979719;28;45555;-81
2022/01/18 12:12:46;;;;;;;;;15.00;11.75;;;;;10.02;61.58;103124.41;4979487;28;45483;-81
2022/01/18 12:15:26;;;;;;;;;12.00;10.00;;;;;10.08;61.80;103118.25;4980400;28;46211;-80
2022/01/18 12:17:56;;;;;;;;;6.75;6.75;;;;;9.88;61.19;103081.63;4979106;28;45435;-81
2022/01/18 12:20:43;;;;;;;;;10.50;7.00;;;;;10.10;61.03;103112.03;4979275;28;45540;-81
2022/01/18 12:23:14;;;;;;;;;9.75;7.50;;;;;9.82;60.70;103057.56;4978222;28;45582;-81
2022/01/18 12:26:16;;;;;;;;;8.50;6.75;;;;;9.82;60.50;103052.22;4979983;28;45428;-80
2022/01/18 12:34:24;;;;;;;;;6.75;6.75;;;;;10.29;60.30;103089.06;4980224;28;45176;-80
2022/01/18 12:36:51;;;;;;;;;10.75;8.75;;;;;9.88;60.52;103016.72;4979006;28;48650;-81
2022/01/18 12:39:17;;;;;;;;;8.00;8.00;;;;;10.28;60.53;103083.69;4978995;28;45803;-80
2022/01/18 12:41:46;;;;;;;;;11.50;8.50;;;;;10.01;60.63;103038.16;4980244;28;45194;-80
2022/01/18 12:44:21;;;;;;;;;13.25;10.75;;;;;10.13;61.01;103044.47;4980239;28;45397;-81
2022/01/18 12:46:59;;;;;;;;;12.25;9.75;;;;;10.04;60.70;103017.69;4979964;28;45456;-81
2022/01/18 12:49:27;;;;;;;;;9.50;8.75;;;;;9.94;60.40;102988.31;4979562;28;45514;-81
2022/01/18 12:51:58;;;;;;;;;16.50;12.75;;;;;9.99;60.44;102991.00;4966318;28;45179;-81